Terminal Aerodrome Forecast
Issued by NWS

Home | Current Version | Previous Version | Text Only | Print | Product List | Glossary On
Versions: 1 2 3 4 5 6 7 8 9 10 11 12 13 14 15 16 17 18
000
FTUS42 KGSP 252335
TAFGMU
TAF
KGMU 252335Z 2600/2624 20006KT P6SM OVC090
     FM260400 VRB03KT P6SM VCSH OVC090
      TEMPO 2606/2609 4SM -RA BR OVC025
     FM260900 33004KT 5SM -RA BR OVC070
     FM261300 05005KT 3SM -SHRA BR OVC015
     FM261600 06004KT P6SM OVC010 PROB30 2616/2618 2SM -SHRA OVC008
     FM262200 02004KT P6SM BKN035=

USA.gov is the U.S. government's official web portal to all federal, state and local government web resources and services.